createdAt,value
2023-05-04T00:01:01.352Z,77.06
2023-05-04T00:03:27.296Z,76.47
2023-05-04T00:05:53.139Z,75.78
2023-05-04T00:08:18.983Z,76.79
2023-05-04T00:10:44.831Z,77.04
2023-05-04T00:13:11.235Z,77.13
2023-05-04T00:15:37.154Z,76.56
2023-05-04T00:18:03.091Z,76.09
2023-05-04T00:20:28.878Z,76.33
2023-05-04T00:22:54.849Z,77.13
2023-05-04T00:25:20.735Z,77.52
2023-05-04T00:27:46.559Z,78.78
2023-05-04T00:30:12.652Z,78.65
2023-05-04T00:32:38.513Z,78.87
2023-05-04T00:35:04.702Z,79.13
2023-05-04T00:37:30.523Z,77.93
2023-05-04T00:39:56.328Z,78.85
2023-05-04T00:42:22.164Z,78.23
2023-05-04T00:44:47.974Z,78.25
2023-05-04T00:47:16.085Z,78.41
2023-05-04T00:49:41.950Z,77.78
2023-05-04T00:52:09.784Z,77.95
2023-05-04T00:54:35.720Z,77.94
2023-05-04T00:57:02.810Z,77.88
2023-05-04T00:59:28.570Z,78.61
2023-05-04T01:01:54.532Z,78.22
2023-05-04T01:04:20.905Z,78.67
2023-05-04T01:07:20.231Z,79.15
2023-05-04T01:09:57.554Z,78.50
2023-05-04T01:12:37.160Z,77.73
2023-05-04T01:15:03.511Z,76.95
2023-05-04T01:17:29.455Z,77.81
2023-05-04T01:19:55.241Z,78.62
2023-05-04T01:22:21.489Z,78.45
2023-05-04T01:24:47.437Z,78.95
2023-05-04T01:27:23.727Z,78.82
2023-05-04T01:29:57.869Z,78.19
2023-05-04T01:32:29.539Z,79.62
2023-05-04T01:34:56.028Z,79.20
2023-05-04T01:37:21.994Z,79.42
2023-05-04T01:39:47.832Z,79.59
2023-05-04T01:42:13.622Z,80.73
2023-05-04T01:44:39.914Z,79.81
2023-05-04T01:47:05.852Z,79.08
2023-05-04T01:49:31.629Z,79.47
2023-05-04T01:51:57.452Z,79.44
2023-05-04T01:54:23.228Z,79.01
2023-05-04T01:56:49.071Z,79.33
2023-05-04T01:59:15.170Z,79.15
2023-05-04T02:01:41.199Z,79.43
2023-05-04T02:04:07.517Z,79.41
2023-05-04T02:06:33.424Z,79.63
2023-05-04T02:08:59.406Z,79.70
2023-05-04T02:11:25.313Z,80.81
2023-05-04T02:13:51.109Z,80.28
2023-05-04T02:16:16.959Z,81.79
2023-05-04T02:18:42.855Z,81.09
2023-05-04T02:21:08.725Z,82.12
2023-05-04T02:23:37.243Z,81.67
2023-05-04T02:26:03.094Z,82.93
2023-05-04T02:28:29.009Z,81.67
2023-05-04T02:30:54.774Z,81.61
2023-05-04T02:33:20.978Z,80.94
2023-05-04T02:35:46.792Z,81.13
2023-05-04T02:38:12.638Z,82.33
2023-05-04T02:40:38.388Z,82.80
2023-05-04T02:43:04.175Z,83.42
2023-05-04T02:45:30.051Z,83.27
2023-05-04T02:47:55.979Z,83.22
2023-05-04T02:50:21.820Z,83.95
2023-05-04T02:52:47.643Z,83.65
2023-05-04T02:55:13.508Z,82.44
2023-05-04T02:57:39.333Z,82.33
2023-05-04T03:00:06.306Z,83.09
2023-05-04T03:02:32.606Z,82.82
2023-05-04T03:04:58.440Z,82.34
2023-05-04T03:07:24.865Z,83.00
2023-05-04T03:09:50.682Z,84.01
2023-05-04T03:12:16.498Z,83.28
2023-05-04T03:17:08.467Z,83.35
2023-05-04T03:19:34.339Z,85.29
2023-05-04T03:22:00.154Z,84.80
2023-05-04T03:24:26.064Z,85.45
2023-05-04T03:26:51.894Z,85.12
2023-05-04T03:29:17.730Z,84.69
2023-05-04T03:31:43.637Z,85.64
2023-05-04T03:34:11.741Z,85.37
2023-05-04T03:36:38.046Z,86.86
2023-05-04T03:39:03.901Z,86.35
2023-05-04T03:41:29.639Z,85.96
2023-05-04T03:43:55.474Z,85.77
2023-05-04T03:46:21.415Z,86.37
2023-05-04T03:48:47.188Z,85.63
2023-05-04T03:51:13.106Z,86.46
2023-05-04T03:53:38.948Z,86.84
2023-05-04T03:56:05.034Z,87.48
2023-05-04T03:58:30.928Z,87.15
2023-05-04T04:00:56.692Z,88.42
2023-05-04T04:03:22.764Z,88.73
2023-05-04T04:05:49.271Z,87.50
2023-05-04T04:08:15.051Z,86.80
2023-05-04T04:10:41.435Z,86.78
2023-05-04T04:13:07.234Z,87.06
2023-05-04T04:15:35.354Z,86.56
2023-05-04T04:18:01.387Z,87.08
2023-05-04T04:20:27.295Z,86.80
2023-05-04T04:22:53.278Z,85.47
2023-05-04T04:25:19.183Z,85.08
2023-05-04T04:27:45.030Z,85.49
2023-05-04T04:30:11.509Z,85.47
2023-05-04T04:32:37.512Z,86.42
2023-05-04T04:35:04.095Z,86.44
2023-05-04T04:37:30.006Z,86.60
2023-05-04T04:39:55.781Z,86.24
2023-05-04T04:42:21.584Z,85.98
2023-05-04T04:44:48.741Z,86.00
2023-05-04T04:47:15.938Z,85.52
2023-05-04T04:49:42.621Z,84.91
2023-05-04T04:52:08.393Z,84.47
2023-05-04T04:54:34.718Z,84.58
2023-05-04T04:57:00.642Z,85.19
2023-05-04T04:59:26.408Z,85.10
2023-05-04T05:01:52.151Z,84.76
2023-05-04T05:04:21.751Z,84.70
2023-05-04T05:06:47.957Z,84.83
2023-05-04T05:09:13.791Z,84.50
2023-05-04T05:11:39.735Z,84.60
2023-05-04T05:14:05.824Z,84.77
2023-05-04T05:16:32.081Z,84.65
2023-05-04T05:18:57.997Z,84.69
2023-05-04T05:21:23.816Z,84.51
2023-05-04T05:23:49.652Z,83.58
2023-05-04T05:26:15.516Z,83.52
2023-05-04T05:28:41.299Z,83.55
2023-05-04T05:31:07.185Z,82.99
2023-05-04T05:33:33.069Z,83.28
2023-05-04T05:36:05.377Z,83.68
2023-05-04T05:38:31.953Z,81.35
2023-05-04T05:40:57.918Z,82.41
2023-05-04T05:43:23.727Z,82.15
2023-05-04T05:45:49.476Z,80.70
2023-05-04T05:48:15.458Z,81.42
2023-05-04T05:50:41.359Z,80.69
2023-05-04T05:53:07.245Z,81.05
2023-05-04T05:55:33.180Z,79.41
2023-05-04T05:57:58.964Z,79.25
2023-05-04T06:00:25.391Z,79.03
2023-05-04T06:02:51.909Z,78.74
2023-05-04T06:05:17.882Z,78.60
2023-05-04T06:07:43.734Z,79.37
2023-05-04T06:10:10.176Z,79.01
2023-05-04T06:12:36.096Z,77.52
2023-05-04T06:15:01.951Z,78.13
2023-05-04T06:17:27.849Z,78.35
2023-05-04T06:19:53.722Z,76.86
2023-05-04T06:22:19.581Z,75.46
2023-05-04T06:24:45.783Z,76.95
2023-05-04T06:27:11.703Z,75.78
2023-05-04T06:29:40.700Z,76.72
2023-05-04T06:32:09.331Z,75.38
2023-05-04T06:34:35.327Z,75.44
2023-05-04T06:37:01.133Z,76.43
2023-05-04T06:39:26.986Z,75.55
2023-05-04T06:41:54.750Z,74.86
2023-05-04T06:44:21.574Z,74.05
2023-05-04T06:46:47.550Z,73.76
2023-05-04T06:49:13.350Z,72.72
2023-05-04T06:51:39.296Z,72.84
2023-05-04T06:54:05.566Z,72.56
2023-05-04T06:56:31.704Z,72.61
2023-05-04T06:58:57.912Z,72.84
2023-05-04T07:01:23.834Z,71.49
2023-05-04T07:03:49.859Z,71.78
2023-05-04T07:06:15.737Z,72.64
2023-05-04T07:08:41.799Z,72.93
2023-05-04T07:11:08.535Z,71.80
2023-05-04T07:13:34.314Z,72.73
2023-05-04T07:16:00.270Z,73.10
2023-05-04T07:18:26.149Z,72.59
2023-05-04T07:20:53.030Z,71.82
2023-05-04T07:23:22.073Z,70.59
2023-05-04T07:25:52.367Z,70.09
2023-05-04T07:28:19.394Z,68.83
2023-05-04T07:30:45.261Z,65.68
2023-05-04T07:33:11.222Z,64.53
2023-05-04T07:35:37.059Z,65.15
2023-05-04T07:38:02.910Z,64.99
2023-05-04T07:40:28.778Z,65.27
2023-05-04T07:42:55.602Z,65.40
2023-05-04T07:45:21.387Z,64.84
2023-05-04T07:47:47.241Z,64.32
2023-05-04T07:50:13.636Z,64.47
2023-05-04T07:52:39.426Z,64.36
2023-05-04T07:55:06.100Z,63.66
2023-05-04T07:57:32.807Z,62.91
2023-05-04T07:59:58.708Z,63.03
2023-05-04T08:02:24.918Z,60.69
2023-05-04T08:04:50.848Z,61.14
2023-05-04T08:07:16.966Z,62.37
2023-05-04T08:09:42.788Z,60.81
2023-05-04T08:12:08.512Z,59.10
2023-05-04T08:14:35.260Z,60.11
2023-05-04T08:17:02.310Z,59.74
2023-05-04T08:19:28.235Z,58.72
2023-05-04T08:21:54.063Z,59.41
2023-05-04T08:24:19.949Z,58.81
2023-05-04T08:26:55.654Z,58.09
2023-05-04T08:29:25.938Z,57.70
2023-05-04T08:31:53.944Z,57.23
2023-05-04T08:34:19.787Z,56.88
2023-05-04T08:36:46.361Z,58.16
2023-05-04T08:39:12.645Z,57.29
2023-05-04T08:41:40.144Z,56.02
2023-05-04T08:44:08.792Z,56.47
2023-05-04T08:46:35.571Z,54.54
2023-05-04T08:49:01.433Z,55.02
2023-05-04T08:51:28.080Z,56.11
2023-05-04T08:53:54.979Z,56.58
2023-05-04T08:56:22.182Z,55.43
2023-05-04T08:58:50.615Z,56.78
2023-05-04T09:01:18.476Z,55.76
2023-05-04T09:03:46.621Z,53.65
2023-05-04T09:06:13.520Z,53.28
2023-05-04T09:08:40.481Z,52.69
2023-05-04T09:11:06.408Z,53.47
2023-05-04T09:13:33.292Z,53.21
2023-05-04T09:15:59.301Z,52.17
2023-05-04T09:18:42.261Z,51.44
2023-05-04T09:21:08.660Z,51.65
2023-05-04T09:23:52.889Z,52.30
2023-05-04T09:26:32.070Z,50.31
2023-05-04T09:29:12.695Z,51.80
2023-05-04T09:31:46.554Z,52.12
2023-05-04T09:34:14.201Z,50.20
2023-05-04T09:36:41.406Z,48.57
2023-05-04T09:39:11.416Z,49.90
2023-05-04T09:41:37.462Z,50.32
2023-05-04T09:44:03.920Z,50.35
2023-05-04T09:46:30.168Z,47.87
2023-05-04T09:48:56.943Z,48.36
2023-05-04T09:51:25.724Z,48.21
2023-05-04T09:53:53.130Z,45.50
2023-05-04T09:56:40.429Z,46.70
2023-05-04T09:59:09.364Z,44.64
2023-05-04T10:01:35.874Z,45.28
2023-05-04T10:04:03.275Z,44.18
2023-05-04T10:06:29.621Z,44.54
2023-05-04T10:08:56.024Z,44.87
2023-05-04T10:11:25.019Z,43.00
2023-05-04T10:13:51.331Z,41.38
2023-05-04T10:16:40.728Z,42.09
2023-05-04T10:19:37.246Z,42.34
2023-05-04T10:22:17.650Z,42.50
2023-05-04T10:25:02.018Z,42.52
2023-05-04T10:27:43.271Z,39.04
2023-05-04T10:30:11.415Z,37.80
2023-05-04T10:32:39.208Z,38.46
2023-05-04T10:35:07.079Z,37.97
2023-05-04T10:37:33.325Z,36.97
2023-05-04T10:39:59.170Z,36.41
2023-05-04T10:42:25.045Z,35.47
2023-05-04T10:44:54.420Z,35.65
2023-05-04T10:47:56.571Z,37.59
2023-05-04T10:50:22.372Z,36.99
2023-05-04T10:52:56.366Z,35.53
2023-05-04T10:55:23.309Z,35.61
2023-05-04T10:57:58.319Z,35.52
2023-05-04T11:00:38.129Z,36.45
2023-05-04T11:03:06.613Z,35.90
2023-05-04T11:05:53.796Z,35.96
2023-05-04T11:08:21.609Z,36.33
2023-05-04T11:10:48.973Z,36.70
2023-05-04T11:13:18.297Z,36.18
2023-05-04T11:15:53.555Z,33.66
2023-05-04T11:18:26.339Z,32.39
2023-05-04T11:20:52.178Z,32.86
2023-05-04T11:23:18.069Z,33.41
2023-05-04T11:25:43.989Z,32.15
2023-05-04T11:28:09.777Z,31.71
2023-05-04T11:30:41.539Z,31.63
2023-05-04T11:33:12.882Z,30.49
2023-05-04T11:35:39.624Z,32.45
2023-05-04T11:38:06.876Z,30.49
2023-05-04T11:40:33.092Z,31.19
2023-05-04T11:42:59.658Z,29.69
2023-05-04T11:45:31.747Z,30.13
2023-05-04T11:47:58.790Z,30.38
2023-05-04T11:50:26.171Z,29.64
2023-05-04T11:53:09.935Z,26.35
2023-05-04T11:55:39.327Z,27.03
2023-05-04T11:58:10.195Z,28.74
2023-05-04T12:00:40.122Z,29.58
2023-05-04T12:03:08.529Z,30.56
2023-05-04T12:05:35.649Z,29.40
2023-05-04T12:08:02.738Z,29.02
2023-05-04T12:10:30.608Z,28.84
2023-05-04T12:12:56.705Z,26.46
2023-05-04T12:15:35.851Z,26.50
2023-05-04T12:18:03.252Z,24.32
2023-05-04T12:20:32.798Z,25.54
2023-05-04T12:23:05.259Z,26.36
2023-05-04T12:25:31.089Z,25.39
2023-05-04T12:27:57.114Z,25.62
2023-05-04T12:30:22.924Z,24.41
2023-05-04T12:32:48.779Z,24.25
2023-05-04T12:35:14.749Z,26.31
2023-05-04T12:37:41.397Z,27.18
2023-05-04T12:40:20.881Z,26.67
2023-05-04T12:42:53.965Z,25.51
2023-05-04T12:45:21.829Z,25.48
2023-05-04T12:47:47.648Z,25.58
2023-05-04T12:50:13.544Z,25.35
2023-05-04T12:52:40.244Z,25.36
2023-05-04T12:55:06.813Z,25.74
2023-05-04T12:57:32.811Z,25.43
2023-05-04T12:59:59.956Z,24.69
2023-05-04T13:02:26.259Z,25.90
2023-05-04T13:04:52.128Z,23.59
2023-05-04T13:07:17.901Z,24.51
2023-05-04T13:09:43.722Z,23.67
2023-05-04T13:12:09.518Z,23.33
2023-05-04T13:14:39.255Z,22.47
2023-05-04T13:17:05.840Z,22.90
2023-05-04T13:19:31.710Z,20.91
2023-05-04T13:21:57.492Z,20.48
2023-05-04T13:24:23.430Z,20.28
2023-05-04T13:26:49.365Z,19.62
2023-05-04T13:29:15.283Z,18.83
2023-05-04T13:31:44.999Z,18.38
2023-05-04T13:34:11.118Z,19.39
2023-05-04T13:36:36.902Z,20.40
2023-05-04T13:39:02.750Z,18.44
2023-05-04T13:41:28.593Z,19.68
2023-05-04T13:43:54.442Z,20.06
2023-05-04T13:46:20.898Z,20.35
2023-05-04T13:48:46.807Z,20.64
2023-05-04T13:51:12.614Z,22.10
2023-05-04T13:53:38.433Z,19.82
2023-05-04T13:56:04.985Z,19.33
2023-05-04T13:58:30.871Z,20.61
2023-05-04T14:00:58.418Z,21.20
2023-05-04T14:03:24.333Z,20.92
2023-05-04T14:05:51.063Z,20.91
2023-05-04T14:08:16.905Z,21.61
2023-05-04T14:10:42.759Z,21.72
2023-05-04T14:13:08.764Z,21.27
2023-05-04T14:15:55.407Z,21.45
2023-05-04T14:18:21.318Z,21.61
2023-05-04T14:20:47.817Z,20.43
2023-05-04T14:23:13.724Z,21.26
2023-05-04T14:25:41.480Z,22.15
2023-05-04T14:28:08.126Z,20.75
2023-05-04T14:30:34.054Z,22.60
2023-05-04T14:33:02.857Z,23.10
2023-05-04T14:35:28.739Z,23.25
2023-05-04T14:37:54.721Z,22.31
2023-05-04T14:40:20.860Z,22.68
2023-05-04T14:42:46.748Z,23.11
2023-05-04T14:45:12.834Z,22.72
2023-05-04T14:47:39.032Z,23.79
2023-05-04T14:50:06.323Z,23.71
2023-05-04T14:52:32.300Z,24.60
2023-05-04T14:54:58.104Z,24.93
2023-05-04T14:57:23.974Z,24.76
2023-05-04T14:59:49.792Z,25.06
2023-05-04T15:02:16.732Z,24.94
2023-05-04T15:04:42.626Z,25.04
2023-05-04T15:07:08.744Z,25.83
2023-05-04T15:09:34.844Z,26.35
2023-05-04T15:12:00.956Z,27.46
2023-05-04T15:14:26.774Z,28.07
2023-05-04T15:16:52.733Z,27.58
2023-05-04T15:19:18.561Z,27.06
2023-05-04T15:21:44.420Z,28.08
2023-05-04T15:24:10.350Z,28.29
2023-05-04T15:26:36.194Z,28.74
2023-05-04T15:29:01.986Z,29.49
2023-05-04T15:31:27.876Z,30.16
2023-05-04T15:33:53.643Z,30.12
2023-05-04T15:36:19.477Z,29.80
2023-05-04T15:38:45.269Z,30.33
2023-05-04T15:41:13.027Z,30.43
2023-05-04T15:43:38.824Z,30.72
2023-05-04T15:46:04.646Z,30.82
2023-05-04T15:48:30.615Z,30.96
2023-05-04T15:50:56.461Z,30.79
2023-05-04T15:53:22.375Z,30.68
2023-05-04T15:55:49.596Z,31.17
2023-05-04T15:58:15.512Z,31.61
2023-05-04T16:00:41.446Z,32.41
2023-05-04T16:03:07.964Z,32.41
2023-05-04T16:05:34.154Z,32.42
2023-05-04T16:08:00.454Z,33.13
2023-05-04T16:10:26.301Z,33.16
2023-05-04T16:12:52.450Z,32.98
2023-05-04T16:15:18.669Z,33.67
2023-05-04T16:17:44.460Z,32.77
2023-05-04T16:20:11.042Z,32.80
2023-05-04T16:22:39.677Z,33.55
2023-05-04T16:25:10.833Z,33.67
2023-05-04T16:27:37.369Z,33.63
2023-05-04T16:30:03.541Z,34.09
2023-05-04T16:32:29.478Z,34.41
2023-05-04T16:34:55.288Z,34.53
2023-05-04T16:37:21.141Z,34.38
2023-05-04T16:39:46.941Z,34.82
2023-05-04T16:42:12.938Z,34.52
2023-05-04T16:44:38.813Z,34.82
2023-05-04T16:47:04.724Z,34.77
2023-05-04T16:49:31.559Z,35.12
2023-05-04T16:51:57.405Z,34.88
2023-05-04T16:54:23.360Z,34.70
2023-05-04T16:56:49.662Z,35.20
2023-05-04T16:59:15.891Z,34.76
2023-05-04T17:01:42.807Z,34.26
2023-05-04T17:04:10.071Z,35.31
2023-05-04T17:06:36.854Z,35.21
2023-05-04T17:09:04.079Z,35.49
2023-05-04T17:11:33.763Z,36.36
2023-05-04T17:14:00.575Z,36.95
2023-05-04T17:16:26.538Z,36.55
2023-05-04T17:18:52.482Z,37.35
2023-05-04T17:21:18.373Z,37.57
2023-05-04T17:23:44.206Z,36.81
2023-05-04T17:26:10.143Z,37.18
2023-05-04T17:28:36.298Z,37.43
2023-05-04T17:31:02.300Z,37.29
2023-05-04T17:33:28.478Z,36.23
2023-05-04T17:35:54.277Z,36.44
2023-05-04T17:38:20.121Z,36.68
2023-05-04T17:40:45.984Z,37.19
2023-05-04T17:43:11.822Z,38.30
2023-05-04T17:45:37.714Z,38.43
2023-05-04T17:48:03.830Z,38.38
2023-05-04T17:50:29.996Z,38.36
2023-05-04T17:52:56.291Z,38.22
2023-05-04T17:55:23.958Z,38.33
2023-05-04T17:57:51.185Z,38.82
2023-05-04T18:00:17.373Z,38.67
2023-05-04T18:02:43.814Z,39.88
2023-05-04T18:05:10.282Z,40.71
2023-05-04T18:07:36.216Z,40.64
2023-05-04T18:10:02.847Z,40.61
2023-05-04T18:12:28.767Z,40.94
2023-05-04T18:14:54.708Z,40.96
2023-05-04T18:17:20.692Z,41.43
2023-05-04T18:19:46.541Z,41.97
2023-05-04T18:22:12.455Z,42.00
2023-05-04T18:24:38.516Z,42.56
2023-05-04T18:27:04.635Z,42.60
2023-05-04T18:29:31.462Z,43.68
2023-05-04T18:31:58.943Z,43.31
2023-05-04T18:34:24.833Z,43.30
2023-05-04T18:36:50.760Z,43.96
2023-05-04T18:39:16.820Z,44.06
2023-05-04T18:41:42.829Z,44.12
2023-05-04T18:44:09.418Z,44.59
2023-05-04T18:46:35.541Z,44.20
2023-05-04T18:49:02.033Z,44.20
2023-05-04T18:51:28.010Z,45.18
2023-05-04T18:53:54.017Z,45.38
2023-05-04T18:56:19.904Z,45.67
2023-05-04T18:58:45.851Z,44.96
2023-05-04T19:01:12.829Z,45.16
2023-05-04T19:03:38.856Z,45.91
2023-05-04T19:06:05.008Z,45.09
2023-05-04T19:08:31.164Z,44.94
2023-05-04T19:11:02.262Z,45.19
2023-05-04T19:13:28.603Z,45.73
2023-05-04T19:15:54.862Z,46.15
2023-05-04T19:18:21.599Z,46.53
2023-05-04T19:20:47.834Z,46.66
2023-05-04T19:23:13.932Z,45.75
2023-05-04T19:25:39.936Z,46.61
2023-05-04T19:28:09.356Z,46.35
2023-05-04T19:30:36.689Z,46.50
2023-05-04T19:33:03.472Z,47.12
2023-05-04T19:35:29.644Z,46.03
2023-05-04T19:37:56.552Z,46.53
2023-05-04T19:40:22.841Z,46.30
2023-05-04T19:42:48.900Z,46.45
2023-05-04T19:45:14.926Z,46.39
2023-05-04T19:47:41.076Z,46.57
2023-05-04T19:50:10.934Z,47.05
2023-05-04T19:52:37.810Z,47.62
2023-05-04T19:55:05.512Z,46.99
2023-05-04T19:57:32.244Z,46.98
2023-05-04T19:59:58.789Z,47.72
2023-05-04T20:02:25.420Z,47.06
2023-05-04T20:04:51.617Z,47.61
2023-05-04T20:07:17.606Z,48.22
2023-05-04T20:09:43.650Z,48.98
2023-05-04T20:12:10.632Z,48.78
2023-05-04T20:14:36.997Z,48.37
2023-05-04T20:17:03.334Z,48.66
2023-05-04T20:19:29.316Z,48.03
2023-05-04T20:21:55.296Z,48.33
2023-05-04T20:24:21.677Z,48.46
2023-05-04T20:26:47.661Z,48.48
2023-05-04T20:29:13.644Z,48.63
2023-05-04T20:31:40.693Z,49.28
2023-05-04T20:34:06.788Z,49.23
2023-05-04T20:36:33.088Z,49.98
2023-05-04T20:39:01.752Z,49.05
2023-05-04T20:41:27.941Z,49.50
2023-05-04T20:43:53.889Z,49.29
2023-05-04T20:46:19.730Z,49.13
2023-05-04T20:48:45.709Z,49.75
2023-05-04T20:51:14.520Z,49.75
2023-05-04T20:53:41.264Z,49.68
2023-05-04T20:56:07.357Z,49.37
2023-05-04T20:58:33.210Z,49.48
2023-05-04T21:01:03.382Z,49.53
2023-05-04T21:03:29.550Z,49.65
2023-05-04T21:05:56.350Z,50.21
2023-05-04T21:08:22.230Z,50.06
2023-05-04T21:10:48.323Z,50.13
2023-05-04T21:13:14.272Z,49.90
2023-05-04T21:15:40.510Z,50.36
2023-05-04T21:18:06.821Z,51.00
2023-05-04T21:20:32.701Z,51.26
2023-05-04T21:22:58.502Z,50.16
2023-05-04T21:25:24.328Z,51.27
2023-05-04T21:27:50.474Z,51.11
2023-05-04T21:30:16.419Z,51.01
2023-05-04T21:32:42.217Z,50.54
2023-05-04T21:35:08.271Z,50.85
2023-05-04T21:37:34.118Z,51.27
2023-05-04T21:40:02.231Z,51.62
2023-05-04T21:42:28.605Z,51.70
2023-05-04T21:44:57.789Z,50.74
2023-05-04T21:47:23.916Z,50.86
2023-05-04T21:49:51.598Z,52.04
2023-05-04T21:52:17.421Z,51.73
2023-05-04T21:54:43.459Z,51.81
2023-05-04T21:57:09.229Z,51.75
2023-05-04T21:59:35.148Z,52.29
2023-05-04T22:02:00.939Z,52.44
2023-05-04T22:04:26.911Z,52.11
2023-05-04T22:06:52.722Z,52.16
2023-05-04T22:09:18.756Z,52.54
2023-05-04T22:11:45.933Z,51.92
2023-05-04T22:14:11.864Z,52.39
2023-05-04T22:16:37.649Z,52.78
2023-05-04T22:19:03.519Z,52.13
2023-05-04T22:21:29.375Z,51.63
2023-05-04T22:23:55.204Z,52.27
2023-05-04T22:26:20.960Z,51.75
2023-05-04T22:28:46.773Z,51.73
2023-05-04T22:31:12.724Z,51.61
2023-05-04T22:33:38.537Z,52.26
2023-05-04T22:36:04.606Z,52.52
2023-05-04T22:38:30.395Z,52.39
2023-05-04T22:40:56.139Z,52.37
2023-05-04T22:43:22.020Z,52.68
2023-05-04T22:45:47.826Z,52.93
2023-05-04T22:48:14.269Z,52.57
2023-05-04T22:50:40.799Z,51.89
2023-05-04T22:53:06.740Z,52.11
2023-05-04T22:55:32.613Z,52.70
2023-05-04T22:57:59.077Z,52.58
2023-05-04T23:00:25.340Z,52.17
2023-05-04T23:02:51.211Z,52.44
2023-05-04T23:05:17.315Z,51.51
2023-05-04T23:07:43.235Z,52.30
2023-05-04T23:10:09.665Z,52.14
2023-05-04T23:12:35.678Z,52.54
2023-05-04T23:15:03.602Z,52.78
2023-05-04T23:17:29.420Z,52.41
2023-05-04T23:19:55.380Z,52.73
2023-05-04T23:22:21.146Z,52.48
2023-05-04T23:24:46.927Z,52.49
2023-05-04T23:27:12.741Z,52.58
2023-05-04T23:29:38.574Z,52.59
2023-05-04T23:32:04.904Z,52.91
2023-05-04T23:34:31.264Z,52.80
2023-05-04T23:36:57.041Z,53.36
2023-05-04T23:39:22.845Z,53.33
2023-05-04T23:41:48.925Z,53.26
2023-05-04T23:44:15.687Z,52.75
2023-05-04T23:46:41.475Z,52.65
2023-05-04T23:49:07.223Z,52.42
2023-05-04T23:51:33.147Z,52.79
2023-05-04T23:53:59.018Z,52.64
2023-05-04T23:56:24.816Z,52.12
2023-05-04T23:58:50.646Z,51.76
